Time,TemperatureF,DewpointF,PressureIn,WindDirection,WindDirectionDegrees,WindSpeedMPH,WindSpeedGustMPH,Humidity,HourlyPrecipIn,Conditions,Clouds,dailyrainin,SoftwareType,DateUTC
2013-02-02 00:07:00,40.5,20.0,30.33,NNE,19,0.0,4.0,44,0.00,,,0.00,weatherlink.com 1.10,2013-02-02 07:07:00,
2013-02-02 00:23:00,40.1,21.0,30.34,NNE,28,2.0,4.0,46,0.00,,,0.00,weatherlink.com 1.10,2013-02-02 07:23:00,
2013-02-02 00:39:00,40.3,21.0,30.34,NNW,342,3.0,8.0,46,0.00,,,0.00,weatherlink.com 1.10,2013-02-02 07:39:00,
2013-02-02 00:52:00,40.4,21.0,30.33,NNE,15,1.0,8.0,46,0.00,,,0.00,weatherlink.com 1.10,2013-02-02 07:52:00,
2013-02-02 01:07:00,40.3,21.0,30.34,NNE,30,2.0,7.0,47,0.00,,,0.00,weatherlink.com 1.10,2013-02-02 08:07:00,
2013-02-02 01:23:00,38.8,21.0,30.34,North,349,1.0,2.0,49,0.00,,,0.00,weatherlink.com 1.10,2013-02-02 08:23:00,
2013-02-02 01:38:00,38.1,21.0,30.34,North,353,0.0,2.0,50,0.00,,,0.00,weatherlink.com 1.10,2013-02-02 08:38:00,
2013-02-02 01:53:00,37.5,20.0,30.35,North,352,0.0,1.0,50,0.00,,,0.00,weatherlink.com 1.10,2013-02-02 08:53:00,
2013-02-02 02:08:00,36.1,20.0,30.35,NNW,327,1.0,3.0,53,0.00,,,0.00,weatherlink.com 1.10,2013-02-02 09:08:00,
2013-02-02 02:23:00,35.9,20.0,30.36,NNW,347,1.0,2.0,53,0.00,,,0.00,weatherlink.com 1.10,2013-02-02 09:23:00,
2013-02-02 02:38:00,35.3,20.0,30.36,NNW,338,1.0,2.0,54,0.00,,,0.00,weatherlink.com 1.10,2013-02-02 09:38:00,
2013-02-02 02:53:00,34.3,20.0,30.36,NNW,339,0.0,1.0,57,0.00,,,0.00,weatherlink.com 1.10,2013-02-02 09:53:00,
2013-02-02 03:08:00,34.4,20.0,30.36,North,1,0.0,1.0,56,0.00,,,0.00,weatherlink.com 1.10,2013-02-02 10:08:00,
2013-02-02 03:23:00,34.4,20.0,30.36,North,5,0.0,1.0,56,0.00,,,0.00,weatherlink.com 1.10,2013-02-02 10:23:00,
2013-02-02 03:38:00,35.7,21.0,30.36,North,5,0.0,1.0,55,0.00,,,0.00,weatherlink.com 1.10,2013-02-02 10:38:00,
2013-02-02 03:53:00,35.0,20.0,30.36,North,5,0.0,1.0,54,0.00,,,0.00,weatherlink.com 1.10,2013-02-02 10:53:00,
2013-02-02 04:08:00,33.5,20.0,30.36,NNW,340,0.0,1.0,58,0.00,,,0.00,weatherlink.com 1.10,2013-02-02 11:08:00,
2013-02-02 04:23:00,33.6,20.0,30.36,NNW,336,0.0,2.0,59,0.00,,,0.00,weatherlink.com 1.10,2013-02-02 11:23:00,
2013-02-02 04:38:00,33.8,21.0,30.37,NNW,336,0.0,0.0,60,0.00,,,0.00,weatherlink.com 1.10,2013-02-02 11:38:00,
2013-02-02 04:53:00,33.2,21.0,30.37,NNW,336,0.0,1.0,60,0.00,,,0.00,weatherlink.com 1.10,2013-02-02 11:53:00,
2013-02-02 05:08:00,32.9,21.0,30.37,NNW,336,0.0,0.0,62,0.00,,,0.00,weatherlink.com 1.10,2013-02-02 12:08:00,
2013-02-02 05:23:00,32.8,20.0,30.37,NNW,336,0.0,0.0,59,0.00,,,0.00,weatherlink.com 1.10,2013-02-02 12:23:00,
2013-02-02 05:38:00,31.2,19.0,30.37,NNW,336,0.0,1.0,62,0.00,,,0.00,weatherlink.com 1.10,2013-02-02 12:38:00,
2013-02-02 05:53:00,31.4,20.0,30.37,ESE,111,0.0,1.0,63,0.00,,,0.00,weatherlink.com 1.10,2013-02-02 12:53:00,
2013-02-02 06:08:00,33.6,21.0,30.37,ESE,111,0.0,0.0,60,0.00,,,0.00,weatherlink.com 1.10,2013-02-02 13:08:00,
2013-02-02 06:38:00,32.5,20.0,30.37,ESE,111,0.0,1.0,60,0.00,,,0.00,weatherlink.com 1.10,2013-02-02 13:38:00,
2013-02-02 06:54:00,32.0,21.0,30.38,North,354,0.0,1.0,65,0.00,,,0.00,weatherlink.com 1.10,2013-02-02 13:54:00,
2013-02-02 07:08:00,31.3,20.0,30.38,ESE,103,0.0,1.0,64,0.00,,,0.00,weatherlink.com 1.10,2013-02-02 14:08:00,
2013-02-02 07:23:00,32.0,22.0,30.38,NNE,13,0.0,2.0,66,0.00,,,0.00,weatherlink.com 1.10,2013-02-02 14:23:00,
2013-02-02 07:39:00,32.1,21.0,30.39,NNE,13,0.0,0.0,63,0.00,,,0.00,weatherlink.com 1.10,2013-02-02 14:39:00,
2013-02-02 07:54:00,33.1,21.0,30.39,NNE,13,1.0,1.0,61,0.00,,,0.00,weatherlink.com 1.10,2013-02-02 14:54:00,
2013-02-02 08:08:00,35.4,22.0,30.39,NNE,20,0.0,2.0,58,0.00,,,0.00,weatherlink.com 1.10,2013-02-02 15:08:00,
2013-02-02 08:23:00,37.4,22.0,30.40,East,91,0.0,1.0,54,0.00,,,0.00,weatherlink.com 1.10,2013-02-02 15:23:00,
2013-02-02 08:39:00,38.7,22.0,30.41,NNE,28,0.0,1.0,51,0.00,,,0.00,weatherlink.com 1.10,2013-02-02 15:39:00,
2013-02-02 08:53:00,39.6,22.0,30.41,NNW,340,0.0,3.0,49,0.00,,,0.00,weatherlink.com 1.10,2013-02-02 15:53:00,
2013-02-02 09:08:00,39.5,22.0,30.41,NNW,347,3.0,3.0,49,0.00,,,0.00,weatherlink.com 1.10,2013-02-02 16:08:00,
2013-02-02 09:24:00,39.8,22.0,30.41,East,95,1.0,3.0,49,0.00,,,0.00,weatherlink.com 1.10,2013-02-02 16:24:00,
2013-02-02 09:39:00,40.8,22.0,30.41,NW,325,1.0,2.0,48,0.00,,,0.00,weatherlink.com 1.10,2013-02-02 16:39:00,
2013-02-02 09:54:00,41.7,22.0,30.41,ENE,77,1.0,4.0,46,0.00,,,0.00,weatherlink.com 1.10,2013-02-02 16:54:00,
2013-02-02 10:09:00,42.2,22.0,30.42,NNE,12,1.0,5.0,44,0.00,,,0.00,weatherlink.com 1.10,2013-02-02 17:09:00,
2013-02-02 10:24:00,43.2,22.0,30.41,NNW,330,2.0,4.0,43,0.00,,,0.00,weatherlink.com 1.10,2013-02-02 17:24:00,
2013-02-02 10:39:00,44.4,22.0,30.41,NNE,20,0.0,4.0,41,0.00,,,0.00,weatherlink.com 1.10,2013-02-02 17:39:00,
2013-02-02 10:54:00,45.2,22.0,30.41,NNW,328,1.0,6.0,40,0.00,,,0.00,weatherlink.com 1.10,2013-02-02 17:54:00,
2013-02-02 11:09:00,46.4,22.0,30.41,NE,34,3.0,6.0,38,0.00,,,0.00,weatherlink.com 1.10,2013-02-02 18:09:00,
2013-02-02 11:24:00,46.9,22.0,30.40,NNW,338,0.0,4.0,38,0.00,,,0.00,weatherlink.com 1.10,2013-02-02 18:24:00,
2013-02-02 11:39:00,48.6,23.0,30.40,North,355,0.0,3.0,36,0.00,,,0.00,weatherlink.com 1.10,2013-02-02 18:39:00,
2013-02-02 11:54:00,49.4,23.0,30.39,NNE,22,0.0,3.0,35,0.00,,,0.00,weatherlink.com 1.10,2013-02-02 18:54:00,
2013-02-02 12:09:00,50.5,22.0,30.39,NE,34,0.0,6.0,33,0.00,,,0.00,weatherlink.com 1.10,2013-02-02 19:09:00,
2013-02-02 12:24:00,51.8,23.0,30.37,NNE,13,3.0,3.0,32,0.00,,,0.00,weatherlink.com 1.10,2013-02-02 19:24:00,
2013-02-02 12:39:00,51.6,22.0,30.36,NW,310,1.0,4.0,32,0.00,,,0.00,weatherlink.com 1.10,2013-02-02 19:39:00,
2013-02-02 12:54:00,52.2,22.0,30.36,NE,55,0.0,4.0,31,0.00,,,0.00,weatherlink.com 1.10,2013-02-02 19:54:00,
2013-02-02 13:09:00,52.4,22.0,30.35,NNW,335,3.0,7.0,30,0.00,,,0.00,weatherlink.com 1.10,2013-02-02 20:09:00,
2013-02-02 13:24:00,52.4,22.0,30.34,NE,36,2.0,6.0,30,0.00,,,0.00,weatherlink.com 1.10,2013-02-02 20:24:00,
2013-02-02 13:39:00,53.3,22.0,30.33,NNW,342,3.0,5.0,29,0.00,,,0.00,weatherlink.com 1.10,2013-02-02 20:39:00,
2013-02-02 13:55:00,54.5,22.0,30.33,East,84,2.0,3.0,28,0.00,,,0.00,weatherlink.com 1.10,2013-02-02 20:55:00,
2013-02-02 14:09:00,54.7,22.0,30.32,East,97,1.0,3.0,28,0.00,,,0.00,weatherlink.com 1.10,2013-02-02 21:09:00,
2013-02-02 14:24:00,55.2,22.0,30.32,SSE,149,1.0,4.0,27,0.00,,,0.00,weatherlink.com 1.10,2013-02-02 21:24:00,
2013-02-02 14:39:00,56.3,21.0,30.32,NNE,25,3.0,5.0,25,0.00,,,0.00,weatherlink.com 1.10,2013-02-02 21:39:00,
2013-02-02 14:54:00,56.8,20.0,30.31,North,352,0.0,3.0,24,0.00,,,0.00,weatherlink.com 1.10,2013-02-02 21:54:00,
2013-02-02 15:09:00,58.2,20.0,30.30,NNE,15,0.0,3.0,23,0.00,,,0.00,weatherlink.com 1.10,2013-02-02 22:09:00,
2013-02-02 15:24:00,57.4,20.0,30.30,NW,312,1.0,5.0,23,0.00,,,0.00,weatherlink.com 1.10,2013-02-02 22:24:00,
2013-02-02 15:39:00,58.2,20.0,30.29,NNW,346,2.0,2.0,23,0.00,,,0.00,weatherlink.com 1.10,2013-02-02 22:39:00,
2013-02-02 15:54:00,58.8,19.0,30.29,WSW,248,1.0,3.0,21,0.00,,,0.00,weatherlink.com 1.10,2013-02-02 22:54:00,
2013-02-02 16:10:00,58.6,19.0,30.29,SE,136,1.0,4.0,21,0.00,,,0.00,weatherlink.com 1.10,2013-02-02 23:10:00,
2013-02-02 16:25:00,58.0,19.0,30.28,SW,218,0.0,2.0,22,0.00,,,0.00,weatherlink.com 1.10,2013-02-02 23:25:00,
2013-02-02 16:40:00,57.0,18.0,30.28,ESE,113,1.0,2.0,22,0.00,,,0.00,weatherlink.com 1.10,2013-02-02 23:40:00,
2013-02-02 16:55:00,56.8,18.0,30.28,ESE,118,0.0,1.0,22,0.00,,,0.00,weatherlink.com 1.10,2013-02-02 23:55:00,
2013-02-02 17:10:00,55.9,19.0,30.28,ESE,116,0.0,1.0,24,0.00,,,0.00,weatherlink.com 1.10,2013-02-03 00:10:00,
2013-02-02 17:25:00,55.0,20.0,30.27,ESE,115,0.0,0.0,25,0.00,,,0.00,weatherlink.com 1.10,2013-02-03 00:25:00,
2013-02-02 17:40:00,53.8,19.0,30.28,ESE,115,0.0,1.0,25,0.00,,,0.00,weatherlink.com 1.10,2013-02-03 00:40:00,
2013-02-02 17:55:00,53.6,23.0,30.28,ESE,115,0.0,0.0,30,0.00,,,0.00,weatherlink.com 1.10,2013-02-03 00:55:00,
2013-02-02 18:10:00,52.9,20.0,30.29,ESE,115,0.0,0.0,28,0.00,,,0.00,weatherlink.com 1.10,2013-02-03 01:10:00,
2013-02-02 18:29:00,51.8,21.0,30.29,ESE,115,0.0,0.0,30,0.00,,,0.00,weatherlink.com 1.10,2013-02-03 01:29:00,
2013-02-02 18:40:00,50.5,19.0,30.30,ESE,116,0.0,0.0,29,0.00,,,0.00,weatherlink.com 1.10,2013-02-03 01:40:00,
2013-02-02 18:55:00,49.8,23.0,30.30,ESE,115,0.0,0.0,35,0.00,,,0.00,weatherlink.com 1.10,2013-02-03 01:55:00,
2013-02-02 19:10:00,48.6,21.0,30.30,North,7,0.0,1.0,33,0.00,,,0.00,weatherlink.com 1.10,2013-02-03 02:10:00,
2013-02-02 19:25:00,47.9,18.0,30.30,NNE,32,0.0,1.0,31,0.00,,,0.00,weatherlink.com 1.10,2013-02-03 02:25:00,
2013-02-02 19:40:00,46.2,18.0,30.30,NNE,31,1.0,1.0,33,0.00,,,0.00,weatherlink.com 1.10,2013-02-03 02:40:00,
2013-02-02 19:55:00,46.5,19.0,30.31,North,359,0.0,2.0,34,0.00,,,0.00,weatherlink.com 1.10,2013-02-03 02:55:00,
2013-02-02 20:10:00,46.4,19.0,30.32,ESE,115,0.0,1.0,34,0.00,,,0.00,weatherlink.com 1.10,2013-02-03 03:10:00,
2013-02-02 20:25:00,44.6,19.0,30.32,ESE,115,0.0,0.0,36,0.00,,,0.00,weatherlink.com 1.10,2013-02-03 03:25:00,
2013-02-02 20:40:00,44.1,19.0,30.32,ESE,115,1.0,1.0,36,0.00,,,0.00,weatherlink.com 1.10,2013-02-03 03:40:00,
2013-02-02 20:55:00,43.4,18.0,30.32,ESE,115,0.0,1.0,36,0.00,,,0.00,weatherlink.com 1.10,2013-02-03 03:55:00,
2013-02-02 21:10:00,42.4,18.0,30.32,SSE,155,0.0,1.0,38,0.00,,,0.00,weatherlink.com 1.10,2013-02-03 04:10:00,
2013-02-02 21:25:00,43.6,22.0,30.32,SSE,155,0.0,0.0,43,0.00,,,0.00,weatherlink.com 1.10,2013-02-03 04:25:00,
2013-02-02 21:40:00,43.1,19.0,30.32,NNW,341,0.0,3.0,38,0.00,,,0.00,weatherlink.com 1.10,2013-02-03 04:40:00,
2013-02-02 21:55:00,42.8,20.0,30.33,NNW,336,0.0,1.0,41,0.00,,,0.00,weatherlink.com 1.10,2013-02-03 04:55:00,
2013-02-02 22:10:00,41.6,19.0,30.33,NW,320,0.0,1.0,41,0.00,,,0.00,weatherlink.com 1.10,2013-02-03 05:10:00,
2013-02-02 22:25:00,41.4,21.0,30.32,NNE,31,0.0,1.0,45,0.00,,,0.00,weatherlink.com 1.10,2013-02-03 05:25:00,
2013-02-02 22:40:00,40.7,20.0,30.32,NNE,31,0.0,1.0,43,0.00,,,0.00,weatherlink.com 1.10,2013-02-03 05:40:00,
2013-02-02 22:55:00,39.5,20.0,30.32,NNE,32,0.0,1.0,45,0.00,,,0.00,weatherlink.com 1.10,2013-02-03 05:55:00,
2013-02-02 23:10:00,39.5,20.0,30.32,NNE,31,0.0,1.0,45,0.00,,,0.00,weatherlink.com 1.10,2013-02-03 06:10:00,
2013-02-02 23:25:00,38.6,21.0,30.32,NNE,31,0.0,1.0,50,0.00,,,0.00,weatherlink.com 1.10,2013-02-03 06:25:00,
2013-02-02 23:40:00,40.2,20.0,30.32,NNE,32,0.0,1.0,45,0.00,,,0.00,weatherlink.com 1.10,2013-02-03 06:40:00,
2013-02-02 23:55:00,40.2,21.0,30.32,NNE,32,0.0,0.0,47,0.00,,,0.00,weatherlink.com 1.10,2013-02-03 06:55:00,